Wetteren, Belgium
Current Conditions -  °F | °C
As of 10:50 AM on Monday 22 Dec 2014 (Local Time) from EBAW Reporting Station
Drizzle Drizzle  
Wind Chill: 42°   Ceiling: 800
Heat Index: 48°   Visibility: 4mi
Dew Point: 45°   Wind: 18mph
Humidity: 87%   Direction: 230°SW
Pressure: 30.12"   Gusts: 32mph
Location:  51.01°N, 3.88°E
Report Text: EBAW 220950Z 23016G28KT 7000 -DZ BKN008 BKN010 09/07 Q1020 TEMPO 23020G32KT
Loading
Personal Weather Stations






























Interactive Weather Map New forecast layout! Learn more

10-Day Weather Forecast

Advertisements
Track Severe Weather on mobile